sensor_id;sensor_type;location;lat;lon;timestamp;temperature;humidity
11599;DHT22;5855;48.840;9.188;2023-09-08T00:01:04;17.00;99.90
11599;DHT22;5855;48.840;9.188;2023-09-08T00:03:31;16.90;99.90
11599;DHT22;5855;48.840;9.188;2023-09-08T00:05:58;16.90;99.90
11599;DHT22;5855;48.840;9.188;2023-09-08T00:08:24;16.80;99.90
11599;DHT22;5855;48.840;9.188;2023-09-08T00:10:51;16.80;99.90
11599;DHT22;5855;48.840;9.188;2023-09-08T00:13:20;16.70;99.90
11599;DHT22;5855;48.840;9.188;2023-09-08T00:15:47;16.70;99.90
11599;DHT22;5855;48.840;9.188;2023-09-08T00:18:14;16.60;99.90
11599;DHT22;5855;48.840;9.188;2023-09-08T00:20:41;16.60;99.90
11599;DHT22;5855;48.840;9.188;2023-09-08T00:23:08;16.60;99.90
11599;DHT22;5855;48.840;9.188;2023-09-08T00:25:35;16.60;99.90
11599;DHT22;5855;48.840;9.188;2023-09-08T00:28:02;16.50;99.90
11599;DHT22;5855;48.840;9.188;2023-09-08T00:30:30;16.60;99.90
11599;DHT22;5855;48.840;9.188;2023-09-08T00:32:57;16.50;99.90
11599;DHT22;5855;48.840;9.188;2023-09-08T00:35:24;16.50;99.90
11599;DHT22;5855;48.840;9.188;2023-09-08T00:37:50;16.40;99.90
11599;DHT22;5855;48.840;9.188;2023-09-08T00:40:17;16.40;99.90
11599;DHT22;5855;48.840;9.188;2023-09-08T00:42:44;16.40;99.90
11599;DHT22;5855;48.840;9.188;2023-09-08T00:45:12;16.40;99.90
11599;DHT22;5855;48.840;9.188;2023-09-08T00:47:40;16.40;99.90
11599;DHT22;5855;48.840;9.188;2023-09-08T00:50:08;16.40;99.90
11599;DHT22;5855;48.840;9.188;2023-09-08T00:52:35;16.30;99.90
11599;DHT22;5855;48.840;9.188;2023-09-08T00:55:02;16.30;99.90
11599;DHT22;5855;48.840;9.188;2023-09-08T00:57:29;16.30;99.90
11599;DHT22;5855;48.840;9.188;2023-09-08T00:59:56;16.30;99.90
11599;DHT22;5855;48.840;9.188;2023-09-08T01:02:23;16.20;99.90
11599;DHT22;5855;48.840;9.188;2023-09-08T01:04:51;16.10;99.90
11599;DHT22;5855;48.840;9.188;2023-09-08T01:07:19;16.10;99.90
11599;DHT22;5855;48.840;9.188;2023-09-08T01:09:46;16.00;99.90
11599;DHT22;5855;48.840;9.188;2023-09-08T01:12:14;16.10;99.90
11599;DHT22;5855;48.840;9.188;2023-09-08T01:14:41;16.00;99.90
11599;DHT22;5855;48.840;9.188;2023-09-08T01:17:08;16.00;99.90
11599;DHT22;5855;48.840;9.188;2023-09-08T01:19:35;15.90;99.90
11599;DHT22;5855;48.840;9.188;2023-09-08T01:22:26;15.90;99.90
11599;DHT22;5855;48.840;9.188;2023-09-08T01:25:17;15.80;99.90
11599;DHT22;5855;48.840;9.188;2023-09-08T01:27:47;15.80;99.90
11599;DHT22;5855;48.840;9.188;2023-09-08T01:30:16;15.70;99.90
11599;DHT22;5855;48.840;9.188;2023-09-08T01:32:44;15.70;99.90
11599;DHT22;5855;48.840;9.188;2023-09-08T01:35:12;15.70;99.90
11599;DHT22;5855;48.840;9.188;2023-09-08T01:37:40;15.70;99.90
11599;DHT22;5855;48.840;9.188;2023-09-08T01:40:10;15.70;99.90
11599;DHT22;5855;48.840;9.188;2023-09-08T01:42:37;15.70;99.90
11599;DHT22;5855;48.840;9.188;2023-09-08T01:45:04;15.70;99.90
11599;DHT22;5855;48.840;9.188;2023-09-08T01:47:32;15.70;99.90
11599;DHT22;5855;48.840;9.188;2023-09-08T01:49:59;15.60;99.90
11599;DHT22;5855;48.840;9.188;2023-09-08T01:52:26;15.60;99.90
11599;DHT22;5855;48.840;9.188;2023-09-08T01:54:53;15.60;99.90
11599;DHT22;5855;48.840;9.188;2023-09-08T01:57:21;15.60;99.90
11599;DHT22;5855;48.840;9.188;2023-09-08T01:59:48;15.60;99.90
11599;DHT22;5855;48.840;9.188;2023-09-08T02:02:15;15.60;99.90
11599;DHT22;5855;48.840;9.188;2023-09-08T02:04:42;15.60;99.90
11599;DHT22;5855;48.840;9.188;2023-09-08T02:07:09;15.50;99.90
11599;DHT22;5855;48.840;9.188;2023-09-08T02:09:37;15.60;99.90
11599;DHT22;5855;48.840;9.188;2023-09-08T02:12:04;15.60;99.90
11599;DHT22;5855;48.840;9.188;2023-09-08T02:14:33;15.50;99.90
11599;DHT22;5855;48.840;9.188;2023-09-08T02:17:00;15.50;99.90
11599;DHT22;5855;48.840;9.188;2023-09-08T02:19:27;15.50;99.90
11599;DHT22;5855;48.840;9.188;2023-09-08T02:21:54;15.50;99.90
11599;DHT22;5855;48.840;9.188;2023-09-08T02:24:21;15.30;99.90
11599;DHT22;5855;48.840;9.188;2023-09-08T02:26:48;15.30;99.90
11599;DHT22;5855;48.840;9.188;2023-09-08T02:29:14;15.30;99.90
11599;DHT22;5855;48.840;9.188;2023-09-08T02:31:42;15.30;99.90
11599;DHT22;5855;48.840;9.188;2023-09-08T02:34:09;15.30;99.90
11599;DHT22;5855;48.840;9.188;2023-09-08T02:36:38;15.30;99.90
11599;DHT22;5855;48.840;9.188;2023-09-08T02:39:04;15.30;99.90
11599;DHT22;5855;48.840;9.188;2023-09-08T02:41:33;15.30;99.90
11599;DHT22;5855;48.840;9.188;2023-09-08T02:44:00;15.20;99.90
11599;DHT22;5855;48.840;9.188;2023-09-08T02:46:26;15.30;99.90
11599;DHT22;5855;48.840;9.188;2023-09-08T02:48:54;15.30;99.90
11599;DHT22;5855;48.840;9.188;2023-09-08T02:51:21;15.20;99.90
11599;DHT22;5855;48.840;9.188;2023-09-08T02:53:48;15.20;99.90
11599;DHT22;5855;48.840;9.188;2023-09-08T02:56:15;15.20;99.90
11599;DHT22;5855;48.840;9.188;2023-09-08T02:58:42;15.20;99.90
11599;DHT22;5855;48.840;9.188;2023-09-08T03:01:10;15.20;99.90
11599;DHT22;5855;48.840;9.188;2023-09-08T03:03:40;15.10;99.90
11599;DHT22;5855;48.840;9.188;2023-09-08T03:06:08;15.20;99.90
11599;DHT22;5855;48.840;9.188;2023-09-08T03:08:36;15.20;99.90
11599;DHT22;5855;48.840;9.188;2023-09-08T03:11:03;15.10;99.90
11599;DHT22;5855;48.840;9.188;2023-09-08T03:13:30;15.10;99.90
11599;DHT22;5855;48.840;9.188;2023-09-08T03:16:02;15.00;99.90
11599;DHT22;5855;48.840;9.188;2023-09-08T03:18:29;15.00;99.90
11599;DHT22;5855;48.840;9.188;2023-09-08T03:20:55;15.00;99.90
11599;DHT22;5855;48.840;9.188;2023-09-08T03:23:24;14.90;99.90
11599;DHT22;5855;48.840;9.188;2023-09-08T03:25:50;14.90;99.90
11599;DHT22;5855;48.840;9.188;2023-09-08T03:28:18;14.90;99.90
11599;DHT22;5855;48.840;9.188;2023-09-08T03:30:44;14.90;99.90
11599;DHT22;5855;48.840;9.188;2023-09-08T03:33:11;14.90;99.90
11599;DHT22;5855;48.840;9.188;2023-09-08T03:35:38;14.80;99.90
11599;DHT22;5855;48.840;9.188;2023-09-08T03:38:05;14.80;99.90
11599;DHT22;5855;48.840;9.188;2023-09-08T03:40:33;14.80;99.90
11599;DHT22;5855;48.840;9.188;2023-09-08T03:43:00;14.80;99.90
11599;DHT22;5855;48.840;9.188;2023-09-08T03:45:26;14.80;99.90
11599;DHT22;5855;48.840;9.188;2023-09-08T03:47:53;14.80;99.90
11599;DHT22;5855;48.840;9.188;2023-09-08T03:50:20;14.80;99.90
11599;DHT22;5855;48.840;9.188;2023-09-08T03:52:47;14.80;99.90
11599;DHT22;5855;48.840;9.188;2023-09-08T03:55:14;14.80;99.90
11599;DHT22;5855;48.840;9.188;2023-09-08T03:57:43;14.80;99.90
11599;DHT22;5855;48.840;9.188;2023-09-08T04:00:11;14.70;99.90
11599;DHT22;5855;48.840;9.188;2023-09-08T04:02:38;14.70;99.90
11599;DHT22;5855;48.840;9.188;2023-09-08T04:05:05;14.60;99.90
11599;DHT22;5855;48.840;9.188;2023-09-08T04:07:32;14.60;99.90
11599;DHT22;5855;48.840;9.188;2023-09-08T04:09:59;14.60;99.90
11599;DHT22;5855;48.840;9.188;2023-09-08T04:12:26;14.50;99.90
11599;DHT22;5855;48.840;9.188;2023-09-08T04:14:54;14.60;99.90
11599;DHT22;5855;48.840;9.188;2023-09-08T04:17:21;14.50;99.90
11599;DHT22;5855;48.840;9.188;2023-09-08T04:19:47;14.50;99.90
11599;DHT22;5855;48.840;9.188;2023-09-08T04:22:14;14.50;99.90
11599;DHT22;5855;48.840;9.188;2023-09-08T04:24:41;14.50;99.90
11599;DHT22;5855;48.840;9.188;2023-09-08T04:27:08;14.50;99.90
11599;DHT22;5855;48.840;9.188;2023-09-08T04:29:36;14.50;99.90
11599;DHT22;5855;48.840;9.188;2023-09-08T04:32:04;14.40;99.90
11599;DHT22;5855;48.840;9.188;2023-09-08T04:34:36;14.40;99.90
11599;DHT22;5855;48.840;9.188;2023-09-08T04:37:03;14.40;99.90
11599;DHT22;5855;48.840;9.188;2023-09-08T04:39:30;14.40;99.90
11599;DHT22;5855;48.840;9.188;2023-09-08T04:41:56;14.40;99.90
11599;DHT22;5855;48.840;9.188;2023-09-08T04:44:23;14.40;99.90
11599;DHT22;5855;48.840;9.188;2023-09-08T04:46:51;14.40;99.90
11599;DHT22;5855;48.840;9.188;2023-09-08T04:49:19;14.40;99.90
11599;DHT22;5855;48.840;9.188;2023-09-08T04:51:46;14.50;99.90
11599;DHT22;5855;48.840;9.188;2023-09-08T04:54:13;14.50;99.90
11599;DHT22;5855;48.840;9.188;2023-09-08T04:56:40;14.40;99.90
11599;DHT22;5855;48.840;9.188;2023-09-08T04:59:07;14.40;99.90
11599;DHT22;5855;48.840;9.188;2023-09-08T05:01:34;14.40;99.90
11599;DHT22;5855;48.840;9.188;2023-09-08T05:04:03;14.40;99.90
11599;DHT22;5855;48.840;9.188;2023-09-08T05:06:31;14.40;99.90
11599;DHT22;5855;48.840;9.188;2023-09-08T05:08:58;14.50;99.90
11599;DHT22;5855;48.840;9.188;2023-09-08T05:11:26;14.50;99.90
11599;DHT22;5855;48.840;9.188;2023-09-08T05:13:53;14.60;99.90
11599;DHT22;5855;48.840;9.188;2023-09-08T05:16:20;14.60;99.90
11599;DHT22;5855;48.840;9.188;2023-09-08T05:19:01;14.70;99.90
11599;DHT22;5855;48.840;9.188;2023-09-08T05:21:28;14.70;99.90
11599;DHT22;5855;48.840;9.188;2023-09-08T05:23:57;14.80;99.90
11599;DHT22;5855;48.840;9.188;2023-09-08T05:26:24;14.90;99.90
11599;DHT22;5855;48.840;9.188;2023-09-08T05:28:50;14.90;99.90
11599;DHT22;5855;48.840;9.188;2023-09-08T05:31:17;15.00;99.90
11599;DHT22;5855;48.840;9.188;2023-09-08T05:33:44;15.10;99.90
11599;DHT22;5855;48.840;9.188;2023-09-08T05:36:11;15.10;99.90
11599;DHT22;5855;48.840;9.188;2023-09-08T05:38:38;15.20;99.90
11599;DHT22;5855;48.840;9.188;2023-09-08T05:41:06;15.20;99.90
11599;DHT22;5855;48.840;9.188;2023-09-08T05:43:33;15.30;99.90
11599;DHT22;5855;48.840;9.188;2023-09-08T05:46:00;15.30;99.90
11599;DHT22;5855;48.840;9.188;2023-09-08T05:48:27;15.40;99.90
11599;DHT22;5855;48.840;9.188;2023-09-08T05:50:53;15.40;99.90
11599;DHT22;5855;48.840;9.188;2023-09-08T05:53:21;15.40;99.90
11599;DHT22;5855;48.840;9.188;2023-09-08T05:55:47;15.50;99.90
11599;DHT22;5855;48.840;9.188;2023-09-08T05:58:16;15.60;99.90
11599;DHT22;5855;48.840;9.188;2023-09-08T06:00:43;15.70;99.90
11599;DHT22;5855;48.840;9.188;2023-09-08T06:03:09;15.70;99.90
11599;DHT22;5855;48.840;9.188;2023-09-08T06:05:36;15.90;99.90
11599;DHT22;5855;48.840;9.188;2023-09-08T06:08:04;15.90;99.90
11599;DHT22;5855;48.840;9.188;2023-09-08T06:10:31;16.00;99.90
11599;DHT22;5855;48.840;9.188;2023-09-08T06:12:57;16.10;99.90
11599;DHT22;5855;48.840;9.188;2023-09-08T06:15:26;16.20;99.90
11599;DHT22;5855;48.840;9.188;2023-09-08T06:17:52;16.30;99.90
11599;DHT22;5855;48.840;9.188;2023-09-08T06:20:19;16.30;99.90
11599;DHT22;5855;48.840;9.188;2023-09-08T06:22:46;16.40;99.90
11599;DHT22;5855;48.840;9.188;2023-09-08T06:25:13;16.50;99.90
11599;DHT22;5855;48.840;9.188;2023-09-08T06:27:41;16.60;99.90
11599;DHT22;5855;48.840;9.188;2023-09-08T06:30:09;16.70;99.90
11599;DHT22;5855;48.840;9.188;2023-09-08T06:32:40;16.70;99.90
11599;DHT22;5855;48.840;9.188;2023-09-08T06:35:07;16.90;99.90
11599;DHT22;5855;48.840;9.188;2023-09-08T06:37:35;17.10;99.90
11599;DHT22;5855;48.840;9.188;2023-09-08T06:40:04;17.10;99.90
11599;DHT22;5855;48.840;9.188;2023-09-08T06:42:31;17.30;99.90
11599;DHT22;5855;48.840;9.188;2023-09-08T06:44:58;17.40;99.90
11599;DHT22;5855;48.840;9.188;2023-09-08T06:47:25;17.50;99.90
11599;DHT22;5855;48.840;9.188;2023-09-08T06:49:54;17.60;99.90
11599;DHT22;5855;48.840;9.188;2023-09-08T06:52:20;17.70;99.90
11599;DHT22;5855;48.840;9.188;2023-09-08T06:54:47;17.80;99.90
11599;DHT22;5855;48.840;9.188;2023-09-08T06:57:17;17.90;99.90
11599;DHT22;5855;48.840;9.188;2023-09-08T06:59:44;18.10;99.90
11599;DHT22;5855;48.840;9.188;2023-09-08T07:02:11;18.30;99.90
11599;DHT22;5855;48.840;9.188;2023-09-08T07:04:38;18.40;99.90
11599;DHT22;5855;48.840;9.188;2023-09-08T07:07:06;18.40;99.90
11599;DHT22;5855;48.840;9.188;2023-09-08T07:09:33;18.60;99.90
11599;DHT22;5855;48.840;9.188;2023-09-08T07:12:01;18.80;99.90
11599;DHT22;5855;48.840;9.188;2023-09-08T07:14:27;18.90;99.90
11599;DHT22;5855;48.840;9.188;2023-09-08T07:16:54;19.10;99.90
11599;DHT22;5855;48.840;9.188;2023-09-08T07:19:21;19.20;99.90
11599;DHT22;5855;48.840;9.188;2023-09-08T07:21:48;19.30;99.90
11599;DHT22;5855;48.840;9.188;2023-09-08T07:24:16;19.50;99.90
11599;DHT22;5855;48.840;9.188;2023-09-08T07:26:43;19.50;99.90
11599;DHT22;5855;48.840;9.188;2023-09-08T07:29:10;19.70;99.90
11599;DHT22;5855;48.840;9.188;2023-09-08T07:31:39;19.90;99.90
11599;DHT22;5855;48.840;9.188;2023-09-08T07:34:06;20.00;99.90
11599;DHT22;5855;48.840;9.188;2023-09-08T07:36:33;20.20;99.90
11599;DHT22;5855;48.840;9.188;2023-09-08T07:39:00;20.40;99.90
11599;DHT22;5855;48.840;9.188;2023-09-08T07:41:28;20.60;99.90
11599;DHT22;5855;48.840;9.188;2023-09-08T07:43:55;20.90;99.90
11599;DHT22;5855;48.840;9.188;2023-09-08T07:46:22;21.00;99.90
11599;DHT22;5855;48.840;9.188;2023-09-08T07:48:50;21.10;99.90
11599;DHT22;5855;48.840;9.188;2023-09-08T07:51:16;21.20;99.90
11599;DHT22;5855;48.840;9.188;2023-09-08T07:53:43;21.40;99.90
11599;DHT22;5855;48.840;9.188;2023-09-08T07:56:10;21.50;99.90
11599;DHT22;5855;48.840;9.188;2023-09-08T07:58:38;21.60;99.90
11599;DHT22;5855;48.840;9.188;2023-09-08T08:01:06;21.90;99.90
11599;DHT22;5855;48.840;9.188;2023-09-08T08:03:33;22.20;99.90
11599;DHT22;5855;48.840;9.188;2023-09-08T08:06:00;22.30;99.90
11599;DHT22;5855;48.840;9.188;2023-09-08T08:08:27;22.40;99.90
11599;DHT22;5855;48.840;9.188;2023-09-08T08:10:54;22.60;99.90
11599;DHT22;5855;48.840;9.188;2023-09-08T08:13:21;22.90;99.90
11599;DHT22;5855;48.840;9.188;2023-09-08T08:15:49;23.00;99.90
11599;DHT22;5855;48.840;9.188;2023-09-08T08:18:16;22.90;99.90
11599;DHT22;5855;48.840;9.188;2023-09-08T08:20:43;23.20;99.90
11599;DHT22;5855;48.840;9.188;2023-09-08T08:23:10;23.40;99.90
11599;DHT22;5855;48.840;9.188;2023-09-08T08:25:37;23.60;99.90
11599;DHT22;5855;48.840;9.188;2023-09-08T08:28:04;23.80;99.90
11599;DHT22;5855;48.840;9.188;2023-09-08T08:30:31;24.10;99.90
11599;DHT22;5855;48.840;9.188;2023-09-08T08:33:00;24.30;99.90
11599;DHT22;5855;48.840;9.188;2023-09-08T08:35:27;24.70;99.90
11599;DHT22;5855;48.840;9.188;2023-09-08T08:37:57;25.00;99.90
11599;DHT22;5855;48.840;9.188;2023-09-08T08:40:24;24.90;99.90
11599;DHT22;5855;48.840;9.188;2023-09-08T08:42:54;24.90;99.90
11599;DHT22;5855;48.840;9.188;2023-09-08T08:45:23;25.00;99.90
11599;DHT22;5855;48.840;9.188;2023-09-08T08:47:50;25.00;99.90
11599;DHT22;5855;48.840;9.188;2023-09-08T08:50:19;25.30;99.90
11599;DHT22;5855;48.840;9.188;2023-09-08T08:52:47;25.60;99.90
11599;DHT22;5855;48.840;9.188;2023-09-08T08:55:14;25.70;99.90
11599;DHT22;5855;48.840;9.188;2023-09-08T08:57:42;25.80;99.90
11599;DHT22;5855;48.840;9.188;2023-09-08T09:00:11;26.00;99.90
11599;DHT22;5855;48.840;9.188;2023-09-08T09:02:42;26.30;99.90
11599;DHT22;5855;48.840;9.188;2023-09-08T09:05:11;26.40;99.90
11599;DHT22;5855;48.840;9.188;2023-09-08T09:07:41;26.80;99.90
11599;DHT22;5855;48.840;9.188;2023-09-08T09:10:08;27.10;99.90
11599;DHT22;5855;48.840;9.188;2023-09-08T09:12:36;27.40;99.90
11599;DHT22;5855;48.840;9.188;2023-09-08T09:15:04;27.60;99.90
11599;DHT22;5855;48.840;9.188;2023-09-08T09:17:32;27.80;99.90
11599;DHT22;5855;48.840;9.188;2023-09-08T09:20:13;28.00;99.90
11599;DHT22;5855;48.840;9.188;2023-09-08T09:22:42;28.10;99.90
11599;DHT22;5855;48.840;9.188;2023-09-08T09:25:09;28.20;99.90
11599;DHT22;5855;48.840;9.188;2023-09-08T09:27:37;28.50;99.90
11599;DHT22;5855;48.840;9.188;2023-09-08T09:30:07;28.80;99.90
11599;DHT22;5855;48.840;9.188;2023-09-08T09:32:34;29.10;99.90
11599;DHT22;5855;48.840;9.188;2023-09-08T09:35:02;29.40;99.90
11599;DHT22;5855;48.840;9.188;2023-09-08T09:37:30;29.60;99.90
11599;DHT22;5855;48.840;9.188;2023-09-08T09:39:59;29.60;99.90
11599;DHT22;5855;48.840;9.188;2023-09-08T09:42:28;30.00;99.20
11599;DHT22;5855;48.840;9.188;2023-09-08T09:44:55;30.30;98.90
11599;DHT22;5855;48.840;9.188;2023-09-08T09:47:22;30.10;97.70
11599;DHT22;5855;48.840;9.188;2023-09-08T09:49:49;30.00;98.50
11599;DHT22;5855;48.840;9.188;2023-09-08T09:52:21;29.70;98.20
11599;DHT22;5855;48.840;9.188;2023-09-08T09:54:49;29.90;98.90
11599;DHT22;5855;48.840;9.188;2023-09-08T09:57:21;30.00;97.90
11599;DHT22;5855;48.840;9.188;2023-09-08T09:59:49;30.10;97.20
11599;DHT22;5855;48.840;9.188;2023-09-08T10:02:17;30.30;96.80
11599;DHT22;5855;48.840;9.188;2023-09-08T10:04:48;30.40;96.80
11599;DHT22;5855;48.840;9.188;2023-09-08T10:07:15;30.40;95.90
11599;DHT22;5855;48.840;9.188;2023-09-08T10:09:42;30.70;95.40
11599;DHT22;5855;48.840;9.188;2023-09-08T10:12:12;31.10;94.30
11599;DHT22;5855;48.840;9.188;2023-09-08T10:14:42;31.40;93.50
11599;DHT22;5855;48.840;9.188;2023-09-08T10:17:15;31.60;93.70
11599;DHT22;5855;48.840;9.188;2023-09-08T10:19:44;31.80;92.50
11599;DHT22;5855;48.840;9.188;2023-09-08T10:22:20;32.10;91.50
11599;DHT22;5855;48.840;9.188;2023-09-08T10:24:50;32.10;91.70
11599;DHT22;5855;48.840;9.188;2023-09-08T10:27:21;32.10;91.40
11599;DHT22;5855;48.840;9.188;2023-09-08T10:29:51;32.00;91.40
11599;DHT22;5855;48.840;9.188;2023-09-08T10:32:18;32.70;90.80
11599;DHT22;5855;48.840;9.188;2023-09-08T10:34:47;33.30;89.60
11599;DHT22;5855;48.840;9.188;2023-09-08T10:37:19;33.80;85.00
11599;DHT22;5855;48.840;9.188;2023-09-08T10:39:46;33.90;82.20
11599;DHT22;5855;48.840;9.188;2023-09-08T10:42:24;34.10;79.70
11599;DHT22;5855;48.840;9.188;2023-09-08T10:45:17;34.50;77.50
11599;DHT22;5855;48.840;9.188;2023-09-08T10:48:02;34.40;74.20
11599;DHT22;5855;48.840;9.188;2023-09-08T10:50:33;34.20;73.10
11599;DHT22;5855;48.840;9.188;2023-09-08T10:53:07;34.70;73.30
11599;DHT22;5855;48.840;9.188;2023-09-08T10:55:40;35.10;72.70
11599;DHT22;5855;48.840;9.188;2023-09-08T10:58:10;35.30;67.40
11599;DHT22;5855;48.840;9.188;2023-09-08T11:00:46;35.60;66.30
11599;DHT22;5855;48.840;9.188;2023-09-08T11:03:14;35.80;65.60
11599;DHT22;5855;48.840;9.188;2023-09-08T11:05:51;36.10;63.40
11599;DHT22;5855;48.840;9.188;2023-09-08T11:08:18;36.40;61.20
11599;DHT22;5855;48.840;9.188;2023-09-08T11:10:45;36.00;61.80
11599;DHT22;5855;48.840;9.188;2023-09-08T11:13:12;36.10;64.50
11599;DHT22;5855;48.840;9.188;2023-09-08T11:15:39;36.60;61.80
11599;DHT22;5855;48.840;9.188;2023-09-08T11:18:08;37.50;59.90
11599;DHT22;5855;48.840;9.188;2023-09-08T11:20:35;38.20;57.60
11599;DHT22;5855;48.840;9.188;2023-09-08T11:23:02;39.10;54.40
11599;DHT22;5855;48.840;9.188;2023-09-08T11:25:31;39.50;51.30
11599;DHT22;5855;48.840;9.188;2023-09-08T11:27:59;40.10;49.20
11599;DHT22;5855;48.840;9.188;2023-09-08T11:30:28;40.10;47.90
11599;DHT22;5855;48.840;9.188;2023-09-08T11:32:55;41.00;45.70
11599;DHT22;5855;48.840;9.188;2023-09-08T11:35:27;42.00;42.40
11599;DHT22;5855;48.840;9.188;2023-09-08T11:37:59;42.40;39.00
11599;DHT22;5855;48.840;9.188;2023-09-08T11:40:26;41.90;38.00
11599;DHT22;5855;48.840;9.188;2023-09-08T11:42:54;41.60;36.90
11599;DHT22;5855;48.840;9.188;2023-09-08T11:45:21;40.60;38.10
11599;DHT22;5855;48.840;9.188;2023-09-08T11:47:48;40.70;39.40
11599;DHT22;5855;48.840;9.188;2023-09-08T11:50:18;41.00;37.20
11599;DHT22;5855;48.840;9.188;2023-09-08T11:52:48;41.60;36.20
11599;DHT22;5855;48.840;9.188;2023-09-08T11:55:15;42.10;35.70
11599;DHT22;5855;48.840;9.188;2023-09-08T11:57:46;42.40;34.00
11599;DHT22;5855;48.840;9.188;2023-09-08T12:00:15;43.10;32.80
11599;DHT22;5855;48.840;9.188;2023-09-08T12:02:43;43.80;31.30
11599;DHT22;5855;48.840;9.188;2023-09-08T12:05:19;44.60;30.00
11599;DHT22;5855;48.840;9.188;2023-09-08T12:07:48;44.90;29.30
11599;DHT22;5855;48.840;9.188;2023-09-08T12:10:15;45.70;27.50
11599;DHT22;5855;48.840;9.188;2023-09-08T12:12:46;46.40;26.30
11599;DHT22;5855;48.840;9.188;2023-09-08T12:15:31;47.30;24.70
11599;DHT22;5855;48.840;9.188;2023-09-08T12:17:59;46.40;24.20
11599;DHT22;5855;48.840;9.188;2023-09-08T12:20:26;47.10;23.20
11599;DHT22;5855;48.840;9.188;2023-09-08T12:22:59;47.30;22.70
11599;DHT22;5855;48.840;9.188;2023-09-08T12:25:28;48.60;21.40
11599;DHT22;5855;48.840;9.188;2023-09-08T12:27:57;48.70;20.60
11599;DHT22;5855;48.840;9.188;2023-09-08T12:30:24;49.20;19.50
11599;DHT22;5855;48.840;9.188;2023-09-08T12:32:56;49.90;18.10
11599;DHT22;5855;48.840;9.188;2023-09-08T12:35:24;50.40;18.00
11599;DHT22;5855;48.840;9.188;2023-09-08T12:37:59;50.50;17.30
11599;DHT22;5855;48.840;9.188;2023-09-08T12:40:26;50.40;16.60
11599;DHT22;5855;48.840;9.188;2023-09-08T12:42:53;51.00;15.20
11599;DHT22;5855;48.840;9.188;2023-09-08T12:45:22;49.00;15.90
11599;DHT22;5855;48.840;9.188;2023-09-08T12:47:49;48.20;17.10
11599;DHT22;5855;48.840;9.188;2023-09-08T12:50:16;47.00;17.30
11599;DHT22;5855;48.840;9.188;2023-09-08T12:52:42;48.80;17.30
11599;DHT22;5855;48.840;9.188;2023-09-08T12:55:11;50.10;16.40
11599;DHT22;5855;48.840;9.188;2023-09-08T12:57:38;49.40;16.20
11599;DHT22;5855;48.840;9.188;2023-09-08T13:00:05;49.70;15.40
11599;DHT22;5855;48.840;9.188;2023-09-08T13:02:33;48.20;16.80
11599;DHT22;5855;48.840;9.188;2023-09-08T13:05:02;49.30;15.70
11599;DHT22;5855;48.840;9.188;2023-09-08T13:07:29;48.50;15.40
11599;DHT22;5855;48.840;9.188;2023-09-08T13:09:58;47.10;17.00
11599;DHT22;5855;48.840;9.188;2023-09-08T13:12:28;46.90;16.70
11599;DHT22;5855;48.840;9.188;2023-09-08T13:14:56;46.70;17.40
11599;DHT22;5855;48.840;9.188;2023-09-08T13:17:23;46.70;17.40
11599;DHT22;5855;48.840;9.188;2023-09-08T13:19:50;48.00;16.40
11599;DHT22;5855;48.840;9.188;2023-09-08T13:22:20;49.10;15.40
11599;DHT22;5855;48.840;9.188;2023-09-08T13:24:48;50.90;14.70
11599;DHT22;5855;48.840;9.188;2023-09-08T13:27:18;51.40;13.70
11599;DHT22;5855;48.840;9.188;2023-09-08T13:29:46;52.30;12.50
11599;DHT22;5855;48.840;9.188;2023-09-08T13:32:13;52.50;12.20
11599;DHT22;5855;48.840;9.188;2023-09-08T13:34:40;51.30;12.10
11599;DHT22;5855;48.840;9.188;2023-09-08T13:37:09;49.70;13.10
11599;DHT22;5855;48.840;9.188;2023-09-08T13:39:36;49.50;12.60
11599;DHT22;5855;48.840;9.188;2023-09-08T13:42:03;49.20;13.40
11599;DHT22;5855;48.840;9.188;2023-09-08T13:44:30;50.10;12.70
11599;DHT22;5855;48.840;9.188;2023-09-08T13:46:58;50.10;12.80
11599;DHT22;5855;48.840;9.188;2023-09-08T13:49:26;50.70;12.50
11599;DHT22;5855;48.840;9.188;2023-09-08T13:51:53;52.10;11.60
11599;DHT22;5855;48.840;9.188;2023-09-08T13:54:20;52.00;11.20
11599;DHT22;5855;48.840;9.188;2023-09-08T13:56:57;53.00;10.80
11599;DHT22;5855;48.840;9.188;2023-09-08T13:59:25;53.80;10.10
11599;DHT22;5855;48.840;9.188;2023-09-08T14:01:52;54.30;9.50
11599;DHT22;5855;48.840;9.188;2023-09-08T14:04:20;54.50;9.20
11599;DHT22;5855;48.840;9.188;2023-09-08T14:06:47;54.90;9.10
11599;DHT22;5855;48.840;9.188;2023-09-08T14:09:14;54.80;8.60
11599;DHT22;5855;48.840;9.188;2023-09-08T14:11:41;54.90;7.80
11599;DHT22;5855;48.840;9.188;2023-09-08T14:14:08;54.80;8.00
11599;DHT22;5855;48.840;9.188;2023-09-08T14:16:35;52.00;9.10
11599;DHT22;5855;48.840;9.188;2023-09-08T14:19:02;53.30;8.80
11599;DHT22;5855;48.840;9.188;2023-09-08T14:21:30;53.90;8.40
11599;DHT22;5855;48.840;9.188;2023-09-08T14:23:58;54.10;8.00
11599;DHT22;5855;48.840;9.188;2023-09-08T14:26:25;55.30;7.30
11599;DHT22;5855;48.840;9.188;2023-09-08T14:28:51;54.30;7.10
11599;DHT22;5855;48.840;9.188;2023-09-08T14:31:18;52.10;7.10
11599;DHT22;5855;48.840;9.188;2023-09-08T14:33:45;50.70;8.80
11599;DHT22;5855;48.840;9.188;2023-09-08T14:36:16;52.60;8.40
11599;DHT22;5855;48.840;9.188;2023-09-08T14:38:45;54.30;7.50
11599;DHT22;5855;48.840;9.188;2023-09-08T14:41:12;55.00;7.40
11599;DHT22;5855;48.840;9.188;2023-09-08T14:43:40;55.90;6.40
11599;DHT22;5855;48.840;9.188;2023-09-08T14:46:10;55.70;5.80
11599;DHT22;5855;48.840;9.188;2023-09-08T14:48:37;55.90;5.90
11599;DHT22;5855;48.840;9.188;2023-09-08T14:51:04;55.90;5.80
11599;DHT22;5855;48.840;9.188;2023-09-08T14:53:31;55.00;5.30
11599;DHT22;5855;48.840;9.188;2023-09-08T14:55:59;53.60;6.60
11599;DHT22;5855;48.840;9.188;2023-09-08T14:58:26;54.80;6.70
11599;DHT22;5855;48.840;9.188;2023-09-08T15:00:57;55.50;5.90
11599;DHT22;5855;48.840;9.188;2023-09-08T15:03:29;55.30;5.90
11599;DHT22;5855;48.840;9.188;2023-09-08T15:05:56;55.70;5.80
11599;DHT22;5855;48.840;9.188;2023-09-08T15:08:23;55.90;5.70
11599;DHT22;5855;48.840;9.188;2023-09-08T15:10:49;56.40;5.40
11599;DHT22;5855;48.840;9.188;2023-09-08T15:13:17;56.80;5.20
11599;DHT22;5855;48.840;9.188;2023-09-08T15:15:44;57.10;4.90
11599;DHT22;5855;48.840;9.188;2023-09-08T15:18:11;57.10;5.00
11599;DHT22;5855;48.840;9.188;2023-09-08T15:20:38;57.10;5.00
11599;DHT22;5855;48.840;9.188;2023-09-08T15:23:07;57.10;4.80
11599;DHT22;5855;48.840;9.188;2023-09-08T15:25:34;51.40;6.60
11599;DHT22;5855;48.840;9.188;2023-09-08T15:28:01;53.30;6.90
11599;DHT22;5855;48.840;9.188;2023-09-08T15:30:30;53.60;6.40
11599;DHT22;5855;48.840;9.188;2023-09-08T15:32:57;54.80;6.00
11599;DHT22;5855;48.840;9.188;2023-09-08T15:35:24;55.60;5.80
11599;DHT22;5855;48.840;9.188;2023-09-08T15:37:51;55.40;5.80
11599;DHT22;5855;48.840;9.188;2023-09-08T15:40:18;55.80;5.40
11599;DHT22;5855;48.840;9.188;2023-09-08T15:42:45;55.90;5.00
11599;DHT22;5855;48.840;9.188;2023-09-08T15:45:14;56.20;5.00
11599;DHT22;5855;48.840;9.188;2023-09-08T15:47:42;56.20;5.00
11599;DHT22;5855;48.840;9.188;2023-09-08T15:50:09;56.40;4.80
11599;DHT22;5855;48.840;9.188;2023-09-08T15:52:37;56.40;4.60